createdAt,value
2023-02-15T07:22:13.989Z,91.87
2023-02-15T09:51:00.744Z,88.03
2023-02-15T09:58:14.603Z,90.78
2023-02-15T10:01:34.948Z,91.70
2023-02-15T10:05:13.748Z,91.05
2023-02-15T10:08:33.451Z,90.72
2023-02-15T10:11:57.528Z,90.04
2023-02-15T10:15:28.189Z,89.37
2023-02-15T10:18:42.724Z,88.52
2023-02-15T10:25:55.062Z,88.54
2023-02-15T10:28:55.963Z,88.49
2023-02-15T10:31:50.461Z,88.02
2023-02-15T10:35:09.971Z,86.70
2023-02-15T10:39:37.593Z,86.54
2023-02-15T10:42:02.880Z,86.66
2023-02-15T10:44:56.512Z,86.73
2023-02-15T10:47:37.657Z,86.06
2023-02-15T10:50:40.942Z,85.28
2023-02-15T10:54:10.087Z,85.34
2023-02-15T10:57:02.584Z,84.93
2023-02-15T11:00:21.247Z,84.97
2023-02-15T11:03:22.400Z,83.89
2023-02-15T11:06:53.673Z,83.10
2023-02-15T11:10:12.718Z,83.54
2023-02-15T11:13:40.557Z,83.22
2023-02-15T11:16:49.019Z,83.72
2023-02-15T11:26:33.770Z,82.84
2023-02-15T11:29:11.157Z,82.78
2023-02-15T11:31:47.486Z,82.74
2023-02-15T11:34:24.976Z,81.52
2023-02-15T11:36:57.906Z,82.10
2023-02-15T11:39:32.795Z,82.42
2023-02-15T11:42:08.446Z,81.41
2023-02-15T11:44:42.280Z,81.33
2023-02-15T11:47:15.677Z,80.95
2023-02-15T11:49:45.335Z,80.13
2023-02-15T11:52:18.248Z,81.03
2023-02-15T11:54:51.154Z,81.04
2023-02-15T11:57:27.276Z,80.58
2023-02-15T12:00:02.255Z,80.55
2023-02-15T12:02:42.693Z,80.31
2023-02-15T12:05:17.084Z,80.35
2023-02-15T12:07:50.717Z,79.97
2023-02-15T12:10:24.275Z,80.16
2023-02-15T12:13:13.319Z,80.57
2023-02-15T12:15:46.595Z,80.20
2023-02-15T12:18:41.858Z,79.05
2023-02-15T12:21:15.480Z,79.76
2023-02-15T12:23:51.353Z,79.89
2023-02-15T12:26:28.155Z,78.57
2023-02-15T12:28:59.053Z,78.25
2023-02-15T12:31:35.558Z,78.11
2023-02-15T12:34:15.844Z,78.30
2023-02-15T12:36:48.526Z,78.26
2023-02-15T12:39:26.610Z,77.74
2023-02-15T12:42:08.951Z,76.95
2023-02-15T12:44:39.941Z,76.53
2023-02-15T12:47:21.701Z,76.69
2023-02-15T12:50:18.001Z,76.49
2023-02-15T12:52:49.991Z,77.79
2023-02-15T12:55:27.519Z,76.90
2023-02-15T12:58:20.382Z,75.73
2023-02-15T13:00:50.702Z,76.54
2023-02-15T13:03:24.965Z,76.54
2023-02-15T13:06:02.250Z,76.76
2023-02-15T13:08:35.189Z,76.58
2023-02-15T13:11:10.848Z,76.95
2023-02-15T13:13:54.242Z,76.26
2023-02-15T13:16:32.769Z,76.62
2023-02-15T13:19:08.133Z,76.92
2023-02-15T13:21:45.129Z,76.34
2023-02-15T13:24:24.806Z,75.12
2023-02-15T13:27:12.913Z,75.88
2023-02-15T13:33:27.571Z,76.93
2023-02-15T13:36:13.941Z,77.12
2023-02-15T13:40:19.028Z,77.11
2023-02-15T16:30:42.423Z,77.15
2023-02-15T16:41:41.164Z,78.52
2023-02-15T16:44:49.599Z,79.23
2023-02-15T16:48:18.060Z,78.72
2023-02-15T16:51:49.339Z,78.23
2023-02-15T16:59:03.100Z,79.76
2023-02-15T17:13:09.937Z,80.73
2023-02-15T17:15:47.923Z,80.50
2023-02-15T17:18:42.064Z,80.28
2023-02-15T17:21:38.393Z,80.34
2023-02-15T17:24:29.628Z,80.47
2023-02-15T17:27:24.887Z,80.20
2023-02-15T17:30:28.197Z,79.91
2023-02-15T17:33:18.546Z,80.76
2023-02-15T17:36:28.082Z,80.57
2023-02-15T17:39:15.486Z,80.90
2023-02-15T17:42:06.255Z,81.03
2023-02-15T17:44:50.973Z,80.74
2023-02-15T17:47:44.210Z,80.72
2023-02-15T17:50:28.581Z,81.07
2023-02-15T17:53:10.088Z,81.16
2023-02-15T17:55:45.047Z,80.85
2023-02-15T17:58:17.115Z,80.81
2023-02-15T18:01:08.545Z,80.90
2023-02-15T18:04:05.027Z,81.91
2023-02-15T18:06:55.963Z,81.90
2023-02-15T18:09:47.797Z,81.98
2023-02-15T18:12:44.680Z,81.92
2023-02-15T18:15:34.572Z,82.20
2023-02-15T18:18:41.208Z,82.36
2023-02-15T18:21:44.501Z,82.24
2023-02-15T18:24:34.840Z,82.48
2023-02-15T18:27:27.387Z,81.93
2023-02-15T18:30:11.553Z,81.66
2023-02-15T18:32:49.310Z,82.15
2023-02-15T18:35:27.661Z,82.20
2023-02-15T18:38:05.581Z,82.39
2023-02-15T18:40:47.503Z,82.59
2023-02-15T18:43:43.515Z,82.01
2023-02-15T18:46:29.994Z,82.63
2023-02-15T18:49:15.408Z,82.73
2023-02-15T18:51:56.737Z,82.93
2023-02-15T18:54:34.773Z,82.85
2023-02-15T18:57:10.059Z,82.68
2023-02-15T18:59:47.037Z,82.72
2023-02-15T19:02:27.242Z,82.43
2023-02-15T19:05:23.847Z,82.99
2023-02-15T19:08:05.528Z,82.86
2023-02-15T19:10:51.437Z,83.18
2023-02-15T19:13:36.510Z,82.97
2023-02-15T19:16:52.689Z,83.30
2023-02-15T19:19:34.040Z,83.50
2023-02-15T19:22:27.388Z,83.66
2023-02-15T19:25:08.190Z,84.23
2023-02-15T19:28:00.222Z,83.94
2023-02-15T19:30:55.121Z,83.91
2023-02-15T19:34:02.640Z,84.11
2023-02-15T19:37:25.555Z,84.63
2023-02-15T19:39:59.595Z,84.98
2023-02-15T19:42:46.254Z,84.97
2023-02-15T19:45:38.921Z,85.54
2023-02-15T19:48:18.460Z,85.96
2023-02-15T19:51:13.919Z,85.35
2023-02-15T19:53:58.859Z,86.15
2023-02-15T19:56:55.664Z,86.17
2023-02-15T19:59:45.624Z,85.13
2023-02-15T20:02:20.408Z,84.93
2023-02-15T20:04:50.637Z,84.40
2023-02-15T20:07:29.154Z,84.37
2023-02-15T20:10:01.610Z,83.93
2023-02-15T20:12:31.661Z,83.33
2023-02-15T20:15:02.660Z,83.98
2023-02-15T20:17:33.004Z,83.41
2023-02-15T20:20:03.173Z,84.20
2023-02-15T20:22:36.190Z,84.11
2023-02-15T20:25:06.462Z,83.67
2023-02-15T20:27:37.626Z,84.24
2023-02-15T20:30:19.220Z,84.44
2023-02-15T20:32:52.197Z,84.70
2023-02-15T20:35:28.748Z,84.54
2023-02-15T20:38:03.006Z,84.29
2023-02-15T20:41:02.087Z,83.75
2023-02-15T20:43:35.523Z,84.97
2023-02-15T20:46:07.768Z,85.44
2023-02-15T20:48:38.789Z,85.24
2023-02-15T20:51:19.930Z,84.86
2023-02-15T20:53:57.664Z,85.48
2023-02-15T20:56:33.653Z,85.64
2023-02-15T20:59:25.638Z,85.02
2023-02-15T21:02:01.024Z,84.76
2023-02-15T21:04:37.528Z,84.01
2023-02-15T21:07:08.981Z,84.19
2023-02-15T21:09:51.451Z,84.21
2023-02-15T21:12:24.974Z,83.81
2023-02-15T21:15:05.340Z,83.22
2023-02-15T21:17:42.660Z,82.95
2023-02-15T21:20:21.582Z,82.40
2023-02-15T21:22:59.120Z,82.08
2023-02-15T21:25:37.405Z,82.24
2023-02-15T21:40:36.442Z,85.30
2023-02-15T21:44:10.773Z,86.13
2023-02-15T21:50:25.368Z,86.85
2023-02-15T21:53:06.742Z,86.59
2023-02-15T21:55:54.366Z,87.26
2023-02-15T21:58:35.782Z,87.37
2023-02-15T22:01:34.541Z,87.67
2023-02-15T22:04:22.049Z,88.35
2023-02-15T22:07:04.601Z,88.40
2023-02-15T22:09:55.700Z,87.77
2023-02-15T22:12:36.820Z,86.75
2023-02-15T22:15:27.216Z,86.40
2023-02-15T22:18:14.738Z,87.45
2023-02-15T22:21:04.421Z,88.25
2023-02-15T22:23:48.457Z,87.65
2023-02-15T22:26:45.932Z,85.47
2023-02-15T22:29:32.334Z,85.34
2023-02-15T22:32:36.687Z,84.08
2023-02-15T22:35:36.404Z,84.59
2023-02-15T22:38:15.325Z,85.85
2023-02-15T22:40:56.521Z,86.26
2023-02-15T22:43:49.787Z,86.33
2023-02-15T22:46:37.727Z,86.92
2023-02-15T22:49:26.028Z,87.02
2023-02-15T22:52:27.329Z,85.93
2023-02-15T22:55:16.572Z,86.00
2023-02-15T22:58:07.572Z,85.59
2023-02-15T23:01:25.686Z,85.00
2023-02-15T23:04:21.188Z,84.59
2023-02-15T23:07:20.977Z,83.75
2023-02-15T23:10:40.233Z,83.95
2023-02-15T23:13:39.819Z,83.94
2023-02-15T23:16:51.598Z,85.13
2023-02-15T23:19:56.337Z,86.15
2023-02-15T23:22:44.499Z,86.00
2023-02-15T23:25:48.209Z,85.51
2023-02-15T23:28:51.029Z,86.19
2023-02-15T23:31:55.905Z,86.52
2023-02-15T23:34:52.001Z,86.02
2023-02-15T23:37:50.099Z,86.20
2023-02-15T23:40:42.517Z,86.17
2023-02-15T23:43:38.105Z,86.73
2023-02-15T23:46:57.140Z,86.88
2023-02-15T23:49:58.719Z,87.16
2023-02-15T23:53:22.302Z,87.20
2023-02-15T23:59:36.476Z,88.20
